Time;durP1;ratioP1;P1;durP2;ratioP2;P2;SDS_P1;SDS_P2;PMS_P1;PMS_P2;Temp;Humidity;BMP_temperature;BMP_pressure;BME280_temperature;BME280_humidity;BME280_pressure;Samples;Min_cycle;Max_cycle;Signal;HPM_P1;HPM_P2
2022/03/08 00:00:29;;;;;;;5.72;3.15;;;;;;;22.66;44.80;100031.56;4214020;28;20544;-46
2022/03/08 00:02:31;;;;;;;6.13;3.25;;;;;;;22.70;44.56;100024.22;4212114;28;20069;-44
2022/03/08 00:04:35;;;;;;;8.10;3.22;;;;;;;22.69;44.57;100021.78;4203635;28;20102;-46
2022/03/08 00:06:37;;;;;;;7.95;3.50;;;;;;;22.68;44.55;100026.53;4197738;28;20466;-44
2022/03/08 00:08:40;;;;;;;5.80;3.30;;;;;;;22.72;44.64;100021.94;4197873;28;20430;-46
2022/03/08 00:10:42;;;;;;;12.13;3.88;;;;;;;22.69;44.70;100005.84;4197483;28;20037;-43
2022/03/08 00:12:46;;;;;;;9.10;3.30;;;;;;;22.70;44.91;100004.72;4197506;28;20044;-45
2022/03/08 00:14:48;;;;;;;4.50;2.70;;;;;;;22.71;44.46;100000.78;4197087;28;20397;-48
2022/03/08 00:16:49;;;;;;;9.45;3.15;;;;;;;22.73;44.83;99994.91;4204061;28;20561;-47
2022/03/08 00:18:51;;;;;;;9.40;3.40;;;;;;;22.71;44.16;99989.63;4214167;28;20109;-45
2022/03/08 00:20:55;;;;;;;10.43;3.42;;;;;;;22.72;44.08;99987.66;4213442;28;20073;-46
2022/03/08 00:22:57;;;;;;;7.72;2.80;;;;;;;22.72;44.51;99999.63;4202733;28;20041;-44
2022/03/08 00:25:02;;;;;;;6.68;3.00;;;;;;;22.70;44.43;99989.94;4197156;28;20036;-46
2022/03/08 00:27:03;;;;;;;;;;;;;;;22.71;44.14;99986.84;4197795;28;20102;-46
2022/03/08 00:29:04;;;;;;;7.25;2.90;;;;;;;22.79;44.12;99971.31;4197162;28;20321;-45
2022/03/08 00:31:06;;;;;;;8.13;3.22;;;;;;;22.78;43.92;99992.81;4196725;28;20032;-46
2022/03/08 00:33:07;;;;;;;7.30;2.88;;;;;;;22.77;44.11;99991.16;4197459;28;20048;-50
2022/03/08 00:35:13;;;;;;;8.35;3.83;;;;;;;22.77;44.24;99985.59;4197441;28;20045;-45
2022/03/08 00:37:15;;;;;;;5.72;3.13;;;;;;;22.76;43.83;99989.50;4213638;28;20027;-45
2022/03/08 00:39:18;;;;;;;8.57;3.28;;;;;;;22.76;44.17;99989.50;4213838;28;20070;-44
2022/03/08 00:41:20;;;;;;;5.25;2.88;;;;;;;22.76;43.78;99989.50;4212650;28;20110;-44
2022/03/08 00:43:21;;;;;;;7.00;3.03;;;;;;;22.76;44.26;99994.25;4213706;28;20040;-43
2022/03/08 00:45:23;;;;;;;6.30;3.20;;;;;;;22.75;43.71;99993.44;4214021;28;20125;-45
2022/03/08 00:47:24;;;;;;;5.10;2.72;;;;;;;22.76;43.59;99983.09;4213292;28;20131;-48
2022/03/08 00:49:25;;;;;;;6.78;2.80;;;;;;;22.74;44.04;99983.41;4214038;28;20097;-45
2022/03/08 00:51:27;;;;;;;5.50;2.95;;;;;;;22.75;43.71;99987.84;4213527;28;20024;-47
2022/03/08 00:53:28;;;;;;;6.28;2.90;;;;;;;22.72;44.03;99994.06;4213320;28;20039;-44
2022/03/08 00:55:31;;;;;;;8.07;3.13;;;;;;;22.76;43.84;99995.06;4213799;28;20044;-47
2022/03/08 00:57:33;;;;;;;7.05;3.28;;;;;;;22.75;43.64;99993.44;4213604;28;20463;-46
2022/03/08 00:59:34;;;;;;;12.15;3.50;;;;;;;22.74;43.53;99997.38;4213363;28;20052;-44
2022/03/08 01:01:37;;;;;;;5.40;2.92;;;;;;;22.77;43.64;99998.69;4213225;28;20477;-43
2022/03/08 01:03:39;;;;;;;7.03;3.00;;;;;;;22.77;43.80;99995.88;4213875;28;20069;-43
2022/03/08 01:05:41;;;;;;;7.07;2.97;;;;;;;22.76;43.73;100000.66;4213693;28;20085;-43
2022/03/08 01:07:44;;;;;;;7.10;2.85;;;;;;;22.77;43.79;100001.47;4214309;28;20043;-48
2022/03/08 01:09:45;;;;;;;6.20;3.08;;;;;;;22.77;43.55;99990.31;4216796;28;20548;-43
2022/03/08 01:11:46;;;;;;;5.95;2.78;;;;;;;22.78;43.46;99998.38;4216911;28;20036;-43
2022/03/08 01:13:48;;;;;;;6.10;3.40;;;;;;;22.73;43.67;99998.50;4216838;28;20459;-44
2022/03/08 01:15:49;;;;;;;4.72;2.75;;;;;;;22.79;43.37;100002.00;4216598;28;20028;-45
2022/03/08 01:17:52;;;;;;;7.10;3.10;;;;;;;22.79;43.81;100013.97;4216759;28;20043;-42
2022/03/08 01:19:54;;;;;;;8.65;2.80;;;;;;;22.78;43.34;99995.59;4216490;27;20052;-44
2022/03/08 01:21:55;;;;;;;8.35;3.28;;;;;;;22.79;43.44;100002.81;4213513;28;20108;-44
2022/03/08 01:23:57;;;;;;;6.13;2.92;;;;;;;22.79;43.42;100021.53;4200281;28;20114;-45
2022/03/08 01:26:01;;;;;;;5.80;2.88;;;;;;;22.77;43.31;100007.91;4216818;28;20040;-44
2022/03/08 01:28:02;;;;;;;10.35;3.03;;;;;;;22.80;43.64;100012.00;4216029;28;20438;-45
2022/03/08 01:30:06;;;;;;;5.13;3.00;;;;;;;22.80;43.14;100017.59;4206843;28;20040;-44
2022/03/08 01:32:08;;;;;;;6.80;3.40;;;;;;;22.80;43.32;100007.25;4201536;28;20033;-45
2022/03/08 01:34:09;;;;;;;5.70;2.53;;;;;;;22.81;43.18;100008.06;4207207;28;20028;-47
2022/03/08 01:36:11;;;;;;;6.13;2.78;;;;;;;22.83;43.43;100016.97;4216261;28;20094;-44
2022/03/08 01:38:13;;;;;;;8.05;3.00;;;;;;;22.81;43.54;100014.47;4215920;28;20589;-49
2022/03/08 01:40:15;;;;;;;5.70;2.88;;;;;;;22.81;43.47;100008.88;4215823;28;20043;-45
2022/03/08 01:42:20;;;;;;;8.15;3.20;;;;;;;22.80;43.07;100007.25;4215513;28;20040;-49
2022/03/08 01:44:21;;;;;;;;;;;;;;;22.80;43.33;100001.66;4213182;28;20044;-43
2022/03/08 01:46:22;;;;;;;4.53;2.15;;;;;;;22.88;43.35;100002.06;4215631;28;19912;-45
2022/03/08 01:48:24;;;;;;;4.72;2.90;;;;;;;22.88;42.79;100004.84;4215802;28;20082;-46
2022/03/08 01:50:26;;;;;;;5.47;2.97;;;;;;;22.88;42.91;99990.91;4211923;28;20036;-46
2022/03/08 01:52:28;;;;;;;4.72;2.97;;;;;;;22.87;42.89;99989.25;4207392;28;20024;-47
2022/03/08 01:54:29;;;;;;;6.22;3.20;;;;;;;22.86;42.88;100009.91;4216195;28;20387;-47
2022/03/08 01:56:31;;;;;;;7.93;2.83;;;;;;;22.87;43.19;99994.84;4214036;28;20105;-46
2022/03/08 01:58:32;;;;;;;7.20;2.58;;;;;;;22.84;43.08;100008.28;4203230;28;20048;-46
2022/03/08 02:00:33;;;;;;;9.50;3.22;;;;;;;22.86;43.10;100015.50;4214082;28;20040;-44
2022/03/08 02:02:35;;;;;;;6.63;2.70;;;;;;;22.83;42.77;100023.38;4198840;28;20457;-46
2022/03/08 02:04:37;;;;;;;7.15;2.70;;;;;;;22.85;42.90;100034.19;4199336;28;20028;-46
2022/03/08 02:06:39;;;;;;;12.93;3.42;;;;;;;22.84;43.08;100047.31;4199153;28;20041;-44
2022/03/08 02:08:41;;;;;;;9.10;2.90;;;;;;;22.84;42.79;100055.69;4211184;28;20032;-45
2022/03/08 02:10:43;;;;;;;7.00;2.90;;;;;;;22.86;43.22;100082.44;4199819;28;20048;-48
2022/03/08 02:12:47;;;;;;;6.97;3.53;;;;;;;22.87;43.36;100089.69;4215802;28;20082;-47
2022/03/08 02:14:48;;;;;;;6.53;3.17;;;;;;;22.79;43.40;100066.97;4215359;28;20078;-46
2022/03/08 02:16:50;;;;;;;9.77;3.30;;;;;;;22.79;42.70;100085.69;4215508;28;20476;-46
2022/03/08 02:18:51;;;;;;;8.40;3.10;;;;;;;22.88;42.64;100250.34;4214672;28;20048;-46
2022/03/08 02:20:53;;;;;;;7.43;2.83;;;;;;;22.89;42.27;100266.78;4213889;28;20040;-47
2022/03/08 02:22:55;;;;;;;6.00;3.25;;;;;;;22.89;42.57;100250.06;4215824;28;20028;-50
2022/03/08 02:24:56;;;;;;;4.55;2.85;;;;;;;22.91;42.79;100246.94;4215014;28;20085;-44
2022/03/08 02:26:58;;;;;;;10.07;3.08;;;;;;;22.92;42.97;100262.56;4215744;28;20096;-43
2022/03/08 02:29:03;;;;;;;7.13;2.83;;;;;;;22.74;43.38;100272.66;4209658;28;20028;-45
2022/03/08 02:31:05;;;;;;;10.32;3.33;;;;;;;22.91;42.99;100269.25;4206909;28;20036;-49
2022/03/08 02:33:08;;;;;;;9.95;3.35;;;;;;;22.92;43.32;100279.31;4203211;28;20037;-45
2022/03/08 02:35:15;;;;;;;7.10;2.55;;;;;;;22.92;43.23;100293.25;4211893;28;21430;-47
2022/03/08 02:37:16;;;;;;;8.02;2.85;;;;;;;22.92;43.57;100276.53;4208888;28;20157;-45
2022/03/08 02:39:17;;;;;;;8.40;3.25;;;;;;;22.92;43.62;100299.66;4213629;28;20092;-43
2022/03/08 02:41:19;;;;;;;6.53;2.63;;;;;;;22.91;43.20;100274.84;4221645;28;20040;-47
2022/03/08 02:43:20;;;;;;;8.68;2.95;;;;;;;22.93;43.42;100286.53;4215582;28;20031;-44
2022/03/08 02:45:22;;;;;;;5.07;2.67;;;;;;;22.93;43.32;100289.31;4215133;28;20109;-48
2022/03/08 02:47:24;;;;;;;6.75;3.10;;;;;;;22.93;43.25;100297.69;4209563;28;20133;-43
2022/03/08 02:49:25;;;;;;;6.18;2.72;;;;;;;22.93;43.34;100292.13;4220852;28;20039;-45
2022/03/08 02:51:26;;;;;;;8.68;3.10;;;;;;;22.94;42.76;100293.75;4214193;28;20048;-46
2022/03/08 02:53:28;;;;;;;5.30;2.58;;;;;;;22.96;43.27;100308.25;4218844;28;20035;-45
2022/03/08 02:55:32;;;;;;;5.47;2.63;;;;;;;22.96;42.95;100311.03;4215683;28;20031;-44
2022/03/08 02:57:33;;;;;;;7.88;3.38;;;;;;;22.97;42.85;100323.84;4210519;28;20086;-46
2022/03/08 02:59:34;;;;;;;7.43;2.63;;;;;;;22.98;43.00;100328.28;4198269;28;20032;-44
2022/03/08 03:01:36;;;;;;;7.18;3.08;;;;;;;22.98;43.34;100343.06;4205350;28;20101;-45
2022/03/08 03:03:37;;;;;;;4.72;2.58;;;;;;;22.98;43.16;100343.06;4206761;28;20040;-44
2022/03/08 03:05:38;;;;;;;6.60;2.80;;;;;;;23.00;42.91;100362.28;4204839;28;20097;-49
2022/03/08 03:07:40;;;;;;;7.50;2.72;;;;;;;22.99;42.69;100360.63;4221480;28;20128;-44
2022/03/08 03:09:42;;;;;;;7.18;2.88;;;;;;;22.99;43.14;100389.34;4213792;28;20426;-45
2022/03/08 03:11:43;;;;;;;5.45;2.45;;;;;;;22.98;42.73;100382.13;4214389;28;20065;-44
2022/03/08 03:13:44;;;;;;;5.90;2.75;;;;;;;23.00;42.86;100392.97;4217901;28;20040;-43
2022/03/08 03:15:46;;;;;;;6.63;2.97;;;;;;;23.00;42.47;100395.75;4210886;28;20036;-43
2022/03/08 03:17:48;;;;;;;5.35;2.75;;;;;;;22.96;42.67;100400.31;4198307;28;20082;-44
2022/03/08 03:19:49;;;;;;;6.60;2.67;;;;;;;23.01;42.71;100414.19;4215359;28;20044;-44
2022/03/08 03:21:51;;;;;;;7.05;2.90;;;;;;;23.03;42.79;100439.78;4210177;28;20048;-45
2022/03/08 03:23:52;;;;;;;6.20;2.88;;;;;;;23.02;42.39;100449.31;4197989;28;20033;-49
2022/03/08 03:25:54;;;;;;;6.53;2.80;;;;;;;23.02;42.46;100440.94;4205291;28;20105;-48
2022/03/08 03:27:55;;;;;;;5.55;2.70;;;;;;;23.01;42.41;100458.81;4212613;28;20041;-44
2022/03/08 03:29:56;;;;;;;5.10;2.33;;;;;;;23.01;42.63;100475.56;4205884;28;20032;-46
2022/03/08 03:31:58;;;;;;;6.10;2.40;;;;;;;23.01;42.39;100481.97;4216840;28;20024;-47
2022/03/08 03:33:59;;;;;;;5.82;2.40;;;;;;;23.00;41.98;100487.84;4198113;28;20045;-45
2022/03/08 03:36:01;;;;;;;4.32;2.08;;;;;;;23.00;42.15;100491.47;4205121;28;20040;-44
2022/03/08 03:38:05;;;;;;;7.10;2.80;;;;;;;23.00;41.94;100493.41;4198230;28;20361;-47
2022/03/08 03:40:08;;;;;;;4.82;2.63;;;;;;;23.00;41.71;100496.22;4208487;28;20040;-45
2022/03/08 03:42:10;;;;;;;9.82;3.17;;;;;;;22.98;41.77;100498.50;4203021;28;20376;-42
2022/03/08 03:44:11;;;;;;;3.97;2.47;;;;;;;22.96;41.60;100521.13;4218573;28;20032;-44
2022/03/08 03:46:13;;;;;;;4.05;2.42;;;;;;;22.98;41.91;100526.41;4214293;28;20028;-46
2022/03/08 03:48:14;;;;;;;8.25;3.08;;;;;;;22.96;41.62;100517.50;4202529;28;20032;-46
2022/03/08 03:50:15;;;;;;;7.63;3.20;;;;;;;22.99;41.73;100528.03;4203303;28;20032;-44
2022/03/08 03:52:17;;;;;;;6.78;2.60;;;;;;;23.00;41.78;100540.84;4212769;28;20023;-44
2022/03/08 03:54:19;;;;;;;4.00;2.08;;;;;;;23.00;41.63;100563.19;4215348;28;20040;-45
2022/03/08 03:56:23;;;;;;;5.53;2.45;;;;;;;22.98;42.04;100574.66;4216291;27;20048;-49
2022/03/08 03:58:25;;;;;;;8.10;3.35;;;;;;;22.98;41.83;100576.63;4218962;28;20094;-48
2022/03/08 04:00:27;;;;;;;8.50;2.60;;;;;;;23.00;41.38;100591.94;4210858;28;20545;-45
2022/03/08 04:02:31;;;;;;;6.28;2.78;;;;;;;23.00;41.74;100602.25;4214017;28;20422;-47
2022/03/08 04:04:35;;;;;;;4.68;2.50;;;;;;;22.98;41.45;100616.50;4213358;28;20541;-46
2022/03/08 04:06:37;;;;;;;4.32;2.45;;;;;;;23.00;41.37;100625.44;4213884;28;20085;-47
2022/03/08 04:08:38;;;;;;;3.88;2.35;;;;;;;22.89;41.08;100637.00;4215474;28;20040;-48
2022/03/08 04:10:39;;;;;;;7.05;2.20;;;;;;;22.92;41.46;100633.66;4216696;28;20037;-45
2022/03/08 04:12:42;;;;;;;5.32;2.40;;;;;;;22.90;41.26;100650.66;4214681;28;20487;-47
2022/03/08 04:14:47;;;;;;;5.85;2.55;;;;;;;22.92;41.33;100647.59;4214057;28;20089;-43
2022/03/08 04:16:48;;;;;;;7.57;2.53;;;;;;;22.92;41.15;100669.94;4212837;28;20101;-44
2022/03/08 04:18:50;;;;;;;7.10;2.85;;;;;;;22.91;41.06;100676.59;4220204;28;20619;-45
2022/03/08 04:20:51;;;;;;;5.50;2.35;;;;;;;22.91;41.13;100688.63;4198346;28;20041;-43
2022/03/08 04:22:53;;;;;;;8.32;2.97;;;;;;;22.94;41.66;100687.19;4221938;28;20040;-43
2022/03/08 04:24:54;;;;;;;7.22;2.50;;;;;;;22.95;41.22;100702.78;4213398;28;20101;-44
2022/03/08 04:26:55;;;;;;;6.88;2.17;;;;;;;22.93;41.09;100707.84;4214873;28;20032;-42
2022/03/08 04:28:57;;;;;;;8.57;2.42;;;;;;;22.94;41.22;100713.13;4202304;28;20028;-44
2022/03/08 04:30:59;;;;;;;6.90;2.50;;;;;;;22.94;41.44;100726.25;4211549;28;20605;-42
2022/03/08 04:33:00;;;;;;;4.85;2.13;;;;;;;22.96;41.66;100735.16;4216055;28;20487;-43
2022/03/08 04:35:02;;;;;;;7.00;2.70;;;;;;;22.96;41.73;100746.31;4213766;28;20028;-43
2022/03/08 04:37:11;;;;;;;7.20;2.50;;;;;;;22.98;41.60;100767.19;4213441;28;20105;-46
2022/03/08 04:39:12;;;;;;;6.43;2.78;;;;;;;23.01;41.62;100782.53;4219238;28;20105;-43
2022/03/08 04:41:17;;;;;;;5.03;2.63;;;;;;;23.00;41.48;100780.84;4212944;28;20129;-44
2022/03/08 04:43:21;;;;;;;5.72;2.72;;;;;;;22.98;41.24;100789.53;4216267;28;20055;-44
2022/03/08 04:45:23;;;;;;;8.68;2.63;;;;;;;22.95;41.16;100797.66;4205023;28;20468;-44
2022/03/08 04:47:24;;;;;;;7.88;2.50;;;;;;;22.97;41.22;100810.19;4225710;28;20044;-43
2022/03/08 04:49:32;;;;;;;5.50;2.72;;;;;;;22.98;41.49;100816.59;4207893;28;20098;-43
2022/03/08 04:51:33;;;;;;;6.85;3.13;;;;;;;22.96;41.60;100824.47;4212994;28;20039;-44
2022/03/08 04:53:35;;;;;;;10.85;2.45;;;;;;;23.00;41.82;100833.88;4213804;28;20044;-43
2022/03/08 04:55:36;;;;;;;5.25;2.10;;;;;;;23.00;42.02;100842.25;4204868;28;20040;-44
2022/03/08 04:57:39;;;;;;;5.78;2.25;;;;;;;23.00;41.66;100853.41;4217061;28;20047;-44
2022/03/08 04:59:44;;;;;;;7.75;2.65;;;;;;;22.98;41.44;100866.84;4216707;28;20081;-46
2022/03/08 05:01:45;;;;;;;5.28;2.78;;;;;;;22.99;41.46;100863.75;4216681;28;20093;-46
2022/03/08 05:03:46;;;;;;;5.18;3.47;;;;;;;22.99;41.21;100890.81;4217174;28;20085;-46
2022/03/08 05:05:48;;;;;;;7.88;2.70;;;;;;;22.96;40.80;100874.69;4217004;28;20032;-43
2022/03/08 05:07:52;;;;;;;3.45;2.05;;;;;;;22.97;40.60;100887.50;4216794;28;20039;-45
2022/03/08 05:09:54;;;;;;;6.00;2.50;;;;;;;22.97;41.36;100893.91;4217519;28;20085;-44
2022/03/08 05:11:55;;;;;;;6.75;2.13;;;;;;;22.96;40.98;100892.25;4215478;28;20341;-44
2022/03/08 05:13:56;;;;;;;4.45;2.78;;;;;;;22.95;40.69;100895.31;4216793;28;20036;-44
2022/03/08 05:15:58;;;;;;;9.10;2.80;;;;;;;22.94;40.67;100905.66;4217078;28;20036;-43
2022/03/08 05:18:03;;;;;;;5.05;2.40;;;;;;;22.95;41.31;100906.50;4216315;28;20035;-44
2022/03/08 05:20:05;;;;;;;4.22;1.88;;;;;;;22.94;40.73;100916.00;4216997;28;20100;-45
2022/03/08 05:22:09;;;;;;;4.35;2.20;;;;;;;22.91;41.12;100925.81;4217072;28;20085;-45
2022/03/08 05:24:11;;;;;;;4.53;2.13;;;;;;;22.95;40.86;100942.75;4216992;28;20028;-45
2022/03/08 05:26:13;;;;;;;5.97;2.35;;;;;;;22.91;40.96;100952.84;4216937;28;20036;-44
2022/03/08 05:28:23;;;;;;;6.28;2.13;;;;;;;22.91;41.08;100978.81;4211573;28;20116;-44
2022/03/08 05:30:24;;;;;;;5.80;2.30;;;;;;;22.92;41.08;100962.91;4215847;28;20043;-45
2022/03/08 05:32:26;;;;;;;4.63;2.10;;;;;;;22.93;40.97;100981.31;4215715;28;20040;-48
2022/03/08 05:34:28;;;;;;;3.85;2.47;;;;;;;22.92;40.93;100985.22;4215176;28;20043;-46
2022/03/08 05:36:29;;;;;;;4.20;1.90;;;;;;;22.88;40.75;101006.44;4216716;28;20437;-44
2022/03/08 05:38:31;;;;;;;9.23;2.22;;;;;;;22.90;40.94;101009.78;4215318;28;20036;-45
2022/03/08 05:40:33;;;;;;;5.35;2.58;;;;;;;22.88;40.48;101012.03;4216768;28;20035;-44
2022/03/08 05:42:38;;;;;;;5.88;1.77;;;;;;;22.89;41.06;101033.22;4216579;28;20040;-47
2022/03/08 05:44:39;;;;;;;6.28;1.98;;;;;;;22.85;40.60;101030.16;4215819;28;20491;-43
2022/03/08 05:46:41;;;;;;;6.22;2.25;;;;;;;22.86;40.31;101025.41;4216323;28;20032;-48
2022/03/08 05:48:46;;;;;;;3.78;1.83;;;;;;;22.88;40.67;101045.50;4216040;28;20073;-44
2022/03/08 05:50:47;;;;;;;5.18;1.95;;;;;;;22.89;40.77;101041.59;4214849;28;20044;-45
2022/03/08 05:52:49;;;;;;;3.70;1.80;;;;;;;22.89;40.77;101041.59;4215559;28;20028;-49
2022/03/08 05:54:53;;;;;;;4.95;2.30;;;;;;;22.89;40.65;101044.38;4213965;28;20044;-45
2022/03/08 05:56:55;;;;;;;3.50;2.38;;;;;;;22.90;40.66;101040.47;4214529;28;20043;-44
2022/03/08 05:58:56;;;;;;;7.88;2.10;;;;;;;22.87;40.63;101049.44;4215871;28;20089;-47
2022/03/08 06:00:58;;;;;;;3.63;2.08;;;;;;;22.89;40.38;101075.06;4202453;28;20117;-47
2022/03/08 06:02:59;;;;;;;5.88;2.03;;;;;;;22.87;40.33;101061.41;4207620;28;20101;-48
2022/03/08 06:05:05;;;;;;;3.70;1.85;;;;;;;22.87;40.63;101071.75;4215768;28;20062;-44
2022/03/08 06:07:06;;;;;;;4.53;2.17;;;;;;;22.86;40.40;101064.47;4215903;28;20085;-44
2022/03/08 06:09:08;;;;;;;5.22;2.78;;;;;;;22.87;40.60;101086.53;4215719;28;20090;-47
2022/03/08 06:11:09;;;;;;;4.90;2.00;;;;;;;22.84;40.50;101085.13;4215986;28;20422;-45
2022/03/08 06:13:10;;;;;;;6.75;2.22;;;;;;;22.82;40.49;101078.19;4215935;28;20036;-44
2022/03/08 06:15:12;;;;;;;3.20;1.90;;;;;;;22.83;40.92;101082.66;4216380;28;20101;-44
2022/03/08 06:17:14;;;;;;;3.45;1.90;;;;;;;22.82;40.43;101076.25;4216262;28;20085;-46
2022/03/08 06:19:15;;;;;;;5.15;1.88;;;;;;;22.82;40.62;101090.19;4216436;28;20044;-46
2022/03/08 06:21:17;;;;;;;3.45;1.90;;;;;;;22.75;40.01;101086.88;4215750;28;20044;-45
2022/03/08 06:23:19;;;;;;;4.38;1.80;;;;;;;22.82;40.39;101092.97;4215901;28;20105;-45
2022/03/08 06:25:21;;;;;;;4.35;1.90;;;;;;;22.80;40.60;101095.22;4216187;28;20040;-44
2022/03/08 06:27:23;;;;;;;4.32;1.98;;;;;;;22.79;40.57;101101.91;4215395;28;20121;-45
2022/03/08 06:29:24;;;;;;;6.85;1.95;;;;;;;22.79;40.48;101107.50;4215161;28;20043;-45
2022/03/08 06:31:26;;;;;;;6.65;2.13;;;;;;;22.80;40.23;101106.38;4215237;28;20376;-49
2022/03/08 06:33:28;;;;;;;4.00;2.00;;;;;;;22.79;40.37;101120.63;4215897;28;20101;-46
2022/03/08 06:35:29;;;;;;;3.78;1.90;;;;;;;22.76;40.07;101122.00;4209576;28;20503;-44
2022/03/08 06:37:30;;;;;;;2.13;1.50;;;;;;;22.77;40.44;101123.72;4214459;28;20028;-44
2022/03/08 06:39:32;;;;;;;6.05;1.98;;;;;;;22.78;40.57;101116.16;4215636;28;20093;-45
2022/03/08 06:41:33;;;;;;;4.18;1.85;;;;;;;22.78;40.23;101124.53;4215715;28;20097;-43
2022/03/08 06:43:35;;;;;;;4.78;2.20;;;;;;;22.78;40.11;101119.78;4214250;28;20093;-44
2022/03/08 06:45:36;;;;;;;3.80;2.20;;;;;;;22.76;40.30;101123.97;4215935;28;20089;-45
2022/03/08 06:47:40;;;;;;;3.58;1.80;;;;;;;22.72;40.71;101126.50;4214425;28;20028;-46
2022/03/08 06:49:42;;;;;;;5.70;2.17;;;;;;;22.77;40.49;101139.59;4215394;28;20073;-45
2022/03/08 06:51:44;;;;;;;3.30;2.20;;;;;;;22.75;39.95;101137.09;4208528;28;20036;-44
2022/03/08 06:53:48;;;;;;;4.47;1.88;;;;;;;22.74;40.22;101146.59;4215315;28;20414;-48
2022/03/08 06:55:49;;;;;;;4.97;2.10;;;;;;;22.75;40.70;101147.44;4215672;28;20040;-46
2022/03/08 06:57:50;;;;;;;2.97;1.60;;;;;;;22.74;39.88;101143.81;4215042;28;20044;-47
2022/03/08 06:59:52;;;;;;;4.40;1.95;;;;;;;22.73;40.00;101155.25;4215013;28;20105;-45
2022/03/08 07:01:53;;;;;;;5.63;1.98;;;;;;;22.71;40.48;101155.53;4214838;28;20044;-45
2022/03/08 07:03:58;;;;;;;4.60;2.00;;;;;;;22.72;40.38;101165.56;4214499;28;20044;-43
2022/03/08 07:06:00;;;;;;;4.13;1.73;;;;;;;22.71;40.12;101149.94;4213296;28;20109;-45
2022/03/08 07:08:04;;;;;;;7.10;2.83;;;;;;;22.71;39.72;101151.91;4215195;28;20036;-49
2022/03/08 07:10:07;;;;;;;3.28;1.65;;;;;;;22.71;40.08;101161.09;4215059;28;20109;-44
2022/03/08 07:12:09;;;;;;;2.70;1.75;;;;;;;22.70;39.67;101151.06;4214281;28;20108;-46
2022/03/08 07:14:15;;;;;;;6.20;1.95;;;;;;;22.67;40.07;101159.19;4214530;28;20532;-48
2022/03/08 07:16:18;;;;;;;5.57;1.80;;;;;;;22.64;40.17;101152.25;4214543;28;20089;-44
2022/03/08 07:18:19;;;;;;;4.07;1.98;;;;;;;22.65;39.82;101153.91;4214599;28;20055;-46
2022/03/08 07:20:20;;;;;;;5.15;2.25;;;;;;;22.65;40.30;101165.06;4214606;28;20044;-46
2022/03/08 07:22:22;;;;;;;3.60;1.73;;;;;;;22.66;40.18;101158.34;4214584;28;20040;-43
2022/03/08 07:24:23;;;;;;;4.43;1.73;;;;;;;22.67;40.41;101170.34;4214863;28;20040;-45
2022/03/08 07:26:28;;;;;;;4.43;1.60;;;;;;;22.67;40.52;101168.38;4213647;28;20044;-47
2022/03/08 07:28:29;;;;;;;4.90;1.70;;;;;;;22.65;39.99;101165.06;4215113;28;20098;-46
2022/03/08 07:30:31;;;;;;;4.05;1.70;;;;;;;22.67;40.21;101171.16;4213348;28;20059;-43
2022/03/08 07:32:33;;;;;;;4.32;1.95;;;;;;;22.68;40.12;101174.78;4214564;28;20483;-46
2022/03/08 07:34:34;;;;;;;3.35;2.10;;;;;;;22.67;40.45;101179.53;4214212;28;20105;-45
2022/03/08 07:36:37;;;;;;;4.07;1.75;;;;;;;22.67;40.03;101189.88;4214521;28;20081;-47
2022/03/08 07:38:38;;;;;;;5.05;2.00;;;;;;;22.67;40.28;101196.28;4214544;28;20040;-47
2022/03/08 07:40:40;;;;;;;6.32;1.80;;;;;;;22.66;40.19;101204.94;4214102;28;20156;-46
2022/03/08 07:42:42;;;;;;;4.25;1.73;;;;;;;22.65;40.09;101197.69;4214212;28;20044;-42
2022/03/08 07:44:43;;;;;;;4.03;1.85;;;;;;;22.64;40.31;101201.63;4214764;28;20040;-44
2022/03/08 07:46:45;;;;;;;3.95;1.60;;;;;;;22.64;39.80;101213.59;4214733;28;20027;-44
2022/03/08 07:48:46;;;;;;;5.72;1.77;;;;;;;22.64;40.39;101216.41;4212605;28;20085;-44
2022/03/08 07:50:49;;;;;;;3.58;1.65;;;;;;;22.63;40.32;101222.25;4214209;28;20109;-46
2022/03/08 07:52:50;;;;;;;3.90;1.80;;;;;;;22.63;40.29;101225.84;4214307;28;20044;-44
2022/03/08 07:54:52;;;;;;;2.42;1.67;;;;;;;22.65;39.99;101231.19;4214077;28;20093;-44
2022/03/08 07:56:53;;;;;;;3.42;1.67;;;;;;;22.60;39.64;101234.81;4213862;28;20043;-45
2022/03/08 07:58:56;;;;;;;5.75;1.80;;;;;;;22.62;39.92;101237.31;4214653;28;20077;-45
2022/03/08 08:00:57;;;;;;;3.78;1.55;;;;;;;22.61;39.87;101235.66;4211816;28;20465;-44
2022/03/08 08:03:03;;;;;;;3.42;1.70;;;;;;;22.59;39.88;101233.16;4214375;28;20070;-43
2022/03/08 08:05:05;;;;;;;3.72;1.80;;;;;;;22.59;39.93;101230.38;4208390;28;20040;-44
2022/03/08 08:07:07;;;;;;;4.05;1.88;;;;;;;22.59;40.29;101238.75;4213860;28;20094;-46
2022/03/08 08:09:12;;;;;;;3.33;1.65;;;;;;;22.57;40.08;101241.78;4213410;28;20070;-43
2022/03/08 08:11:14;;;;;;;2.13;1.30;;;;;;;22.59;39.89;101244.31;4213196;28;20036;-43
2022/03/08 08:13:15;;;;;;;6.38;1.50;;;;;;;22.58;39.88;101237.03;4214145;28;20532;-47
2022/03/08 08:15:19;;;;;;;2.45;1.55;;;;;;;22.56;39.36;101239.28;4214267;28;20089;-44
2022/03/08 08:17:21;;;;;;;4.78;1.58;;;;;;;22.57;39.69;101240.97;4212616;28;20044;-42
2022/03/08 08:19:22;;;;;;;5.32;1.63;;;;;;;22.56;39.89;101245.72;4213949;28;20036;-47
2022/03/08 08:21:24;;;;;;;2.75;1.60;;;;;;;22.54;39.62;101253.53;4213647;28;20032;-43
2022/03/08 08:23:25;;;;;;;2.65;1.60;;;;;;;22.49;39.84;101255.47;4214271;28;20475;-45
2022/03/08 08:25:27;;;;;;;4.38;2.10;;;;;;;22.54;39.74;101269.41;4213845;28;20044;-44
2022/03/08 08:27:28;;;;;;;4.15;1.60;;;;;;;22.54;39.58;101274.97;4212614;28;20479;-46
2022/03/08 08:29:29;;;;;;;4.00;1.63;;;;;;;22.55;40.03;101279.47;4213867;28;20032;-47
2022/03/08 08:31:32;;;;;;;5.55;1.58;;;;;;;22.54;39.67;101275.84;4212917;28;20074;-45
2022/03/08 08:33:34;;;;;;;2.40;1.50;;;;;;;22.53;39.54;101285.31;4214022;28;20043;-44
2022/03/08 08:35:36;;;;;;;3.97;1.55;;;;;;;22.53;39.70;101290.06;4214292;28;20044;-45
2022/03/08 08:37:37;;;;;;;2.53;1.30;;;;;;;22.53;39.90;101296.47;4214309;28;20455;-42
2022/03/08 08:39:39;;;;;;;4.63;1.70;;;;;;;22.52;39.34;101300.38;4213689;28;20040;-45
2022/03/08 08:41:45;;;;;;;5.72;1.67;;;;;;;22.53;39.38;101306.78;4213850;28;20035;-48
2022/03/08 08:43:46;;;;;;;3.40;1.20;;;;;;;22.53;39.64;101304.00;4212313;28;20036;-45
2022/03/08 08:45:52;;;;;;;3.67;1.30;;;;;;;22.52;39.53;101316.28;4214142;28;20093;-46
2022/03/08 08:47:53;;;;;;;2.70;1.58;;;;;;;22.52;39.59;101324.66;4213807;28;20081;-48
2022/03/08 08:49:55;;;;;;;3.67;1.30;;;;;;;22.52;39.88;101327.44;4214123;28;20020;-46
2022/03/08 08:51:57;;;;;;;3.22;1.40;;;;;;;22.45;39.61;101316.59;4213822;28;20085;-43
2022/03/08 08:53:58;;;;;;;3.35;1.48;;;;;;;22.51;39.99;101332.19;4214381;28;20040;-48
2022/03/08 08:56:00;;;;;;;4.95;1.45;;;;;;;22.52;39.41;101338.59;4213834;28;20105;-46
2022/03/08 08:58:01;;;;;;;3.42;1.38;;;;;;;22.51;39.45;101339.72;4213632;28;20044;-45
2022/03/08 09:00:04;;;;;;;1.50;1.25;;;;;;;22.50;39.92;101335.25;4205465;28;20446;-45
2022/03/08 09:02:07;;;;;;;3.40;1.55;;;;;;;22.45;39.82;101338.03;4212188;28;20536;-43
2022/03/08 09:04:08;;;;;;;4.72;1.80;;;;;;;22.48;39.44;101348.63;4213535;28;20082;-45
2022/03/08 09:06:10;;;;;;;2.35;1.00;;;;;;;22.47;39.77;101349.75;4213849;28;20044;-44
2022/03/08 09:08:14;;;;;;;4.22;1.20;;;;;;;22.47;39.57;101355.34;4213966;28;20028;-43
2022/03/08 09:10:16;;;;;;;2.30;1.30;;;;;;;22.48;39.29;101366.19;4213756;28;20101;-49
2022/03/08 09:12:18;;;;;;;2.17;1.25;;;;;;;22.49;39.49;101384.59;4210758;28;20082;-42
2022/03/08 09:14:19;;;;;;;3.67;1.30;;;;;;;22.47;39.51;101374.84;4213831;28;20044;-44
2022/03/08 09:16:20;;;;;;;3.78;1.25;;;;;;;22.48;39.46;101377.34;4214074;28;20145;-45
2022/03/08 09:18:22;;;;;;;3.35;1.60;;;;;;;22.48;39.63;101379.31;4214143;28;20044;-43
2022/03/08 09:20:25;;;;;;;2.50;1.50;;;;;;;22.43;39.42;101373.75;4213424;28;20032;-43
2022/03/08 09:22:27;;;;;;;3.30;1.10;;;;;;;22.48;39.77;101387.69;4213666;28;20040;-46
2022/03/08 09:24:28;;;;;;;3.05;1.45;;;;;;;22.43;39.04;101373.75;4212605;28;20848;-45
2022/03/08 09:26:30;;;;;;;2.47;1.38;;;;;;;22.45;39.38;101407.75;4214038;28;20421;-44
2022/03/08 09:28:32;;;;;;;2.35;1.33;;;;;;;22.44;39.59;101408.88;4213794;28;20036;-43